createdAt,value
2023-05-21T00:02:30.241Z,5.07
2023-05-21T00:05:05.439Z,5.40
2023-05-21T00:07:37.975Z,4.22
2023-05-21T00:10:11.166Z,4.57
2023-05-21T00:12:43.704Z,6.18
2023-05-21T00:15:16.223Z,4.80
2023-05-21T00:17:48.758Z,5.22
2023-05-21T00:20:21.902Z,9.10
2023-05-21T00:22:54.356Z,7.82
2023-05-21T00:25:26.847Z,4.93
2023-05-21T00:27:59.302Z,5.40
2023-05-21T00:30:31.829Z,3.45
2023-05-21T00:33:04.344Z,8.82
2023-05-21T00:35:37.101Z,4.25
2023-05-21T00:38:09.709Z,5.32
2023-05-21T00:40:42.281Z,10.90
2023-05-21T00:43:14.852Z,10.90
2023-05-21T00:45:48.447Z,12.82
2023-05-21T00:48:21.208Z,12.65
2023-05-21T00:50:54.205Z,12.05
2023-05-21T00:53:27.529Z,10.13
2023-05-21T00:56:00.068Z,8.75
2023-05-21T00:58:34.029Z,8.70
2023-05-21T01:01:07.143Z,7.43
2023-05-21T01:03:41.049Z,6.70
2023-05-21T01:06:14.143Z,7.95
2023-05-21T01:08:46.916Z,7.00
2023-05-21T01:11:21.943Z,6.45
2023-05-21T01:13:54.641Z,7.93
2023-05-21T01:16:29.721Z,5.05
2023-05-21T01:19:03.478Z,9.30
2023-05-21T01:21:45.486Z,5.43
2023-05-21T01:24:18.547Z,6.68
2023-05-21T01:26:51.093Z,5.88
2023-05-21T01:29:23.629Z,4.30
2023-05-21T01:32:30.204Z,5.38
2023-05-21T01:35:11.254Z,7.78
2023-05-21T01:37:53.249Z,4.88
2023-05-21T01:40:38.398Z,5.65
2023-05-21T01:43:11.629Z,6.53
2023-05-21T01:45:45.833Z,5.35
2023-05-21T01:48:18.953Z,5.53
2023-05-21T01:50:52.993Z,5.68
2023-05-21T01:53:25.614Z,4.88
2023-05-21T01:55:59.373Z,6.00
2023-05-21T01:58:31.901Z,4.72
2023-05-21T02:01:05.104Z,5.43
2023-05-21T02:03:38.608Z,3.95
2023-05-21T02:06:11.432Z,5.50
2023-05-21T02:08:45.579Z,5.32
2023-05-21T02:11:18.116Z,4.68
2023-05-21T02:13:50.593Z,6.32
2023-05-21T02:16:23.178Z,4.72
2023-05-21T02:18:57.569Z,13.00
2023-05-21T02:21:31.012Z,5.80
2023-05-21T02:24:03.608Z,4.65
2023-05-21T02:26:36.112Z,4.05
2023-05-21T02:29:09.047Z,5.53
2023-05-21T02:31:41.532Z,4.20
2023-05-21T02:34:14.055Z,6.38
2023-05-21T02:36:48.374Z,5.57
2023-05-21T02:39:21.091Z,5.60
2023-05-21T02:41:53.582Z,7.13
2023-05-21T02:44:26.058Z,4.80
2023-05-21T02:46:58.542Z,6.40
2023-05-21T02:49:31.034Z,4.30
2023-05-21T02:52:03.775Z,5.38
2023-05-21T02:54:36.305Z,4.25
2023-05-21T02:57:08.799Z,9.77
2023-05-21T02:59:41.319Z,4.47
2023-05-21T03:02:13.899Z,6.55
2023-05-21T03:04:46.741Z,5.60
2023-05-21T03:07:19.766Z,7.22
2023-05-21T03:09:52.449Z,6.25
2023-05-21T03:12:24.898Z,4.82
2023-05-21T03:14:57.388Z,4.85
2023-05-21T03:17:29.848Z,7.47
2023-05-21T03:20:05.155Z,5.38
2023-05-21T03:22:37.596Z,4.82
2023-05-21T03:25:11.958Z,6.05
2023-05-21T03:27:44.425Z,7.18
2023-05-21T03:30:16.961Z,4.63
2023-05-21T03:32:49.777Z,5.10
2023-05-21T03:35:22.308Z,5.80
2023-05-21T03:37:54.766Z,4.88
2023-05-21T03:40:27.369Z,4.78
2023-05-21T03:42:59.840Z,5.28
2023-05-21T03:45:32.388Z,8.52
2023-05-21T03:48:05.152Z,4.30
2023-05-21T03:50:37.650Z,5.05
2023-05-21T03:53:10.859Z,5.13
2023-05-21T03:55:43.448Z,4.65
2023-05-21T03:58:15.880Z,4.55
2023-05-21T04:00:48.573Z,5.95
2023-05-21T04:03:21.268Z,7.22
2023-05-21T04:05:53.965Z,6.35
2023-05-21T04:08:26.977Z,4.28
2023-05-21T04:10:59.513Z,4.95
2023-05-21T04:13:32.208Z,5.82
2023-05-21T04:16:05.075Z,5.70
2023-05-21T04:18:37.581Z,8.05
2023-05-21T04:21:10.035Z,4.38
2023-05-21T04:23:42.511Z,5.97
2023-05-21T04:26:16.184Z,7.40
2023-05-21T04:28:48.683Z,5.72
2023-05-21T04:31:22.725Z,8.00
2023-05-21T04:33:55.225Z,5.55
2023-05-21T04:36:29.004Z,6.03
2023-05-21T04:39:02.465Z,8.57
2023-05-21T04:41:35.414Z,7.13
2023-05-21T04:44:08.405Z,7.05
2023-05-21T04:46:41.956Z,5.82
2023-05-21T04:49:15.359Z,7.18
2023-05-21T04:51:49.378Z,5.75
2023-05-21T04:54:21.857Z,7.00
2023-05-21T04:56:54.673Z,5.38
2023-05-21T04:59:27.164Z,6.28
2023-05-21T05:01:59.758Z,6.25
2023-05-21T05:04:32.288Z,5.57
2023-05-21T05:07:05.001Z,6.90
2023-05-21T05:09:37.533Z,5.07
2023-05-21T05:12:10.031Z,7.28
2023-05-21T05:14:42.460Z,5.80
2023-05-21T05:17:14.945Z,5.50
2023-05-21T05:19:47.429Z,6.85
2023-05-21T05:22:19.863Z,6.40
2023-05-21T05:24:52.516Z,6.60
2023-05-21T05:27:24.972Z,10.50
2023-05-21T05:29:57.396Z,10.13
2023-05-21T05:32:29.915Z,5.95
2023-05-21T05:35:03.172Z,7.95
2023-05-21T05:37:35.600Z,6.40
2023-05-21T05:40:08.509Z,7.18
2023-05-21T05:42:41.046Z,5.47
2023-05-21T05:45:13.578Z,5.78
2023-05-21T05:47:46.302Z,7.05
2023-05-21T05:50:20.798Z,7.35
2023-05-21T05:52:53.393Z,6.30
2023-05-21T05:55:26.774Z,5.25
2023-05-21T05:57:59.363Z,10.45
2023-05-21T06:00:32.242Z,7.68
2023-05-21T06:03:05.361Z,13.70
2023-05-21T06:05:38.184Z,5.05
2023-05-21T06:08:10.761Z,8.13
2023-05-21T06:10:43.201Z,5.72
2023-05-21T06:13:15.653Z,6.65
2023-05-21T06:15:48.293Z,8.55
2023-05-21T06:18:20.938Z,6.63
2023-05-21T06:20:53.384Z,8.60
2023-05-21T06:23:25.880Z,6.57
2023-05-21T06:25:58.346Z,7.43
2023-05-21T06:28:31.193Z,6.07
2023-05-21T06:31:03.708Z,6.15
2023-05-21T06:33:36.286Z,5.38
2023-05-21T06:36:08.790Z,13.15
2023-05-21T06:38:42.714Z,5.72
2023-05-21T06:41:15.334Z,6.72
2023-05-21T06:43:47.808Z,6.68
2023-05-21T06:46:20.390Z,6.13
2023-05-21T06:48:52.916Z,7.50
2023-05-21T06:51:25.560Z,5.72
2023-05-21T06:53:58.207Z,7.10
2023-05-21T06:56:30.681Z,4.97
2023-05-21T06:59:03.240Z,7.72
2023-05-21T07:01:35.788Z,8.35
2023-05-21T07:04:09.334Z,6.43
2023-05-21T07:06:41.810Z,10.40
2023-05-21T07:09:14.367Z,10.70
2023-05-21T07:11:47.092Z,6.80
2023-05-21T07:14:19.612Z,6.85
2023-05-21T07:16:52.209Z,7.40
2023-05-21T07:19:24.752Z,7.47
2023-05-21T07:21:57.690Z,8.82
2023-05-21T07:24:30.225Z,6.47
2023-05-21T07:27:08.858Z,7.90
2023-05-21T07:29:50.590Z,8.70
2023-05-21T07:32:23.080Z,7.40
2023-05-21T07:34:55.930Z,7.68
2023-05-21T07:37:31.623Z,8.77
2023-05-21T07:40:04.583Z,7.10
2023-05-21T07:42:37.107Z,7.30
2023-05-21T07:45:09.952Z,9.27
2023-05-21T07:47:42.815Z,6.80
2023-05-21T07:50:15.365Z,7.25
2023-05-21T07:52:47.875Z,7.07
2023-05-21T07:55:20.671Z,9.40
2023-05-21T07:57:53.597Z,8.48
2023-05-21T08:00:26.636Z,6.47
2023-05-21T08:02:59.243Z,7.40
2023-05-21T08:05:32.521Z,8.63
2023-05-21T08:08:05.647Z,8.85
2023-05-21T08:10:38.173Z,7.57
2023-05-21T08:13:13.910Z,8.60
2023-05-21T08:15:46.648Z,7.05
2023-05-21T08:18:19.290Z,8.52
2023-05-21T08:20:51.851Z,9.55
2023-05-21T08:23:24.415Z,7.85
2023-05-21T08:25:57.141Z,9.18
2023-05-21T08:28:30.765Z,7.82
2023-05-21T08:31:03.245Z,8.45
2023-05-21T08:33:38.914Z,8.48
2023-05-21T08:36:11.497Z,7.50
2023-05-21T08:38:44.138Z,7.82
2023-05-21T08:41:18.378Z,9.45
2023-05-21T08:43:57.636Z,9.32
2023-05-21T08:46:34.764Z,8.30
2023-05-21T08:49:12.529Z,9.35
2023-05-21T08:51:46.494Z,8.85
2023-05-21T08:54:19.125Z,8.95
2023-05-21T08:56:53.235Z,8.85
2023-05-21T08:59:27.202Z,8.75
2023-05-21T09:02:00.237Z,9.32
2023-05-21T09:04:34.215Z,12.32
2023-05-21T09:07:09.834Z,8.10
2023-05-21T09:09:49.414Z,10.45
2023-05-21T09:12:21.996Z,8.02
2023-05-21T09:14:56.716Z,9.85
2023-05-21T09:17:31.497Z,12.68
2023-05-21T09:20:17.488Z,9.00
2023-05-21T09:22:50.695Z,9.32
2023-05-21T09:25:29.768Z,9.77
2023-05-21T09:28:02.259Z,10.80
2023-05-21T09:30:36.091Z,7.70
2023-05-21T09:33:08.838Z,12.25
2023-05-21T09:35:50.558Z,11.02
2023-05-21T09:40:59.833Z,9.65
2023-05-21T09:43:32.911Z,7.93
2023-05-21T09:46:05.473Z,9.82
2023-05-21T09:48:43.107Z,8.45
2023-05-21T09:51:17.723Z,10.00
2023-05-21T09:53:54.344Z,9.32
2023-05-21T09:56:29.317Z,10.18
2023-05-21T09:59:06.765Z,9.15
2023-05-21T10:01:39.408Z,8.82
2023-05-21T10:04:12.924Z,9.10
2023-05-21T10:06:47.861Z,9.45
2023-05-21T10:09:21.428Z,10.60
2023-05-21T10:11:55.121Z,13.75
2023-05-21T10:14:32.154Z,9.50
2023-05-21T10:17:06.311Z,8.75
2023-05-21T10:19:40.533Z,13.27
2023-05-21T10:22:13.911Z,13.93
2023-05-21T10:24:47.673Z,9.85
2023-05-21T10:27:22.626Z,10.85
2023-05-21T10:29:57.621Z,11.05
2023-05-21T10:32:30.595Z,12.43
2023-05-21T10:35:03.434Z,11.23
2023-05-21T10:37:36.192Z,10.48
2023-05-21T10:40:09.241Z,9.05
2023-05-21T10:43:01.779Z,11.07
2023-05-21T10:46:02.225Z,14.63
2023-05-21T10:48:52.677Z,8.93
2023-05-21T10:51:29.106Z,10.43
2023-05-21T10:54:01.769Z,16.63
2023-05-21T10:56:46.473Z,11.43
2023-05-21T10:59:28.284Z,12.30
2023-05-21T11:02:01.778Z,9.60
2023-05-21T11:04:39.822Z,14.40
2023-05-21T11:07:13.039Z,12.95
2023-05-21T11:09:45.603Z,13.05
2023-05-21T11:12:19.820Z,12.75
2023-05-21T11:14:58.404Z,13.55
2023-05-21T11:17:39.998Z,11.68
2023-05-21T11:20:14.273Z,10.93
2023-05-21T11:22:46.888Z,13.27
2023-05-21T11:25:19.334Z,11.75
2023-05-21T11:27:53.576Z,13.32
2023-05-21T11:30:25.998Z,10.30
2023-05-21T11:33:07.763Z,11.77
2023-05-21T11:35:46.202Z,12.05
2023-05-21T11:38:18.715Z,12.35
2023-05-21T11:40:54.829Z,12.48
2023-05-21T11:43:27.534Z,13.65
2023-05-21T11:46:00.141Z,10.60
2023-05-21T11:48:33.042Z,15.02
2023-05-21T11:51:06.133Z,17.50
2023-05-21T11:53:39.477Z,12.40
2023-05-21T11:56:12.979Z,14.45
2023-05-21T11:58:46.565Z,16.27
2023-05-21T12:01:26.492Z,11.63
2023-05-21T12:03:59.063Z,13.48
2023-05-21T12:06:31.641Z,13.77
2023-05-21T12:09:05.060Z,15.05
2023-05-21T12:11:39.917Z,12.90
2023-05-21T12:14:12.837Z,13.70
2023-05-21T12:16:45.451Z,11.98
2023-05-21T12:19:18.943Z,11.15
2023-05-21T12:21:51.504Z,19.60
2023-05-21T12:24:24.027Z,9.93
2023-05-21T12:26:59.496Z,12.80
2023-05-21T12:29:33.063Z,12.23
2023-05-21T12:32:09.088Z,11.45
2023-05-21T12:34:46.265Z,13.40
2023-05-21T12:37:27.758Z,11.20
2023-05-21T12:42:34.843Z,10.07
2023-05-21T12:45:08.722Z,12.13
2023-05-21T12:47:41.216Z,12.20
2023-05-21T12:50:14.140Z,11.70
2023-05-21T12:52:46.747Z,12.30
2023-05-21T12:55:19.257Z,12.93
2023-05-21T12:58:02.243Z,11.55
2023-05-21T13:00:35.247Z,11.63
2023-05-21T13:03:08.034Z,13.00
2023-05-21T13:05:41.829Z,12.57
2023-05-21T13:08:16.873Z,10.23
2023-05-21T13:10:49.402Z,12.38
2023-05-21T13:13:22.014Z,12.23
2023-05-21T13:15:55.150Z,12.27
2023-05-21T13:18:27.744Z,13.00
2023-05-21T13:21:00.325Z,12.63
2023-05-21T13:23:33.009Z,10.60
2023-05-21T13:26:05.513Z,11.60
2023-05-21T13:28:38.027Z,13.93
2023-05-21T13:31:12.066Z,13.60
2023-05-21T13:33:44.599Z,11.40
2023-05-21T13:36:17.200Z,10.95
2023-05-21T13:38:49.662Z,12.05
2023-05-21T13:41:22.174Z,11.93
2023-05-21T13:43:54.870Z,11.10
2023-05-21T13:46:27.813Z,12.73
2023-05-21T13:49:00.980Z,12.05
2023-05-21T13:51:39.078Z,15.52
2023-05-21T13:54:14.182Z,11.80
2023-05-21T13:56:47.301Z,12.68
2023-05-21T13:59:20.229Z,10.75
2023-05-21T14:01:53.453Z,13.60
2023-05-21T14:04:26.351Z,10.75
2023-05-21T14:06:59.133Z,10.77
2023-05-21T14:09:32.098Z,11.80
2023-05-21T14:12:06.580Z,11.50
2023-05-21T14:14:39.474Z,13.10
2023-05-21T14:17:12.290Z,9.98
2023-05-21T14:19:44.930Z,9.48
2023-05-21T14:22:17.446Z,12.85
2023-05-21T14:24:50.090Z,10.35
2023-05-21T14:27:22.587Z,10.90
2023-05-21T14:29:55.436Z,11.25
2023-05-21T14:32:28.003Z,10.38
2023-05-21T14:35:00.970Z,9.60
2023-05-21T14:37:33.657Z,10.75
2023-05-21T14:40:07.978Z,13.00
2023-05-21T14:42:40.833Z,12.90
2023-05-21T14:45:18.990Z,12.80
2023-05-21T14:47:52.509Z,12.27
2023-05-21T14:50:25.136Z,11.18
2023-05-21T14:52:57.944Z,12.73
2023-05-21T14:55:30.834Z,9.80
2023-05-21T14:58:04.967Z,9.68
2023-05-21T15:00:38.258Z,10.05
2023-05-21T15:03:10.788Z,10.60
2023-05-21T15:05:43.328Z,9.20
2023-05-21T15:08:15.778Z,11.52
2023-05-21T15:10:48.329Z,12.15
2023-05-21T15:13:21.396Z,9.27
2023-05-21T15:15:54.098Z,11.50
2023-05-21T15:18:26.649Z,8.27
2023-05-21T15:20:59.286Z,10.02
2023-05-21T15:23:32.261Z,10.32
2023-05-21T15:26:04.958Z,10.38
2023-05-21T15:28:37.579Z,11.82
2023-05-21T15:31:11.025Z,11.15
2023-05-21T15:33:43.587Z,13.65
2023-05-21T15:36:16.145Z,9.13
2023-05-21T15:38:48.714Z,10.60
2023-05-21T15:41:22.039Z,14.05
2023-05-21T15:43:54.663Z,13.35
2023-05-21T15:46:27.640Z,11.32
2023-05-21T15:49:00.708Z,14.30
2023-05-21T15:51:33.360Z,11.57
2023-05-21T15:54:06.454Z,9.88
2023-05-21T15:56:40.629Z,11.90
2023-05-21T15:59:14.048Z,12.35
2023-05-21T16:01:47.674Z,12.57
2023-05-21T16:04:20.562Z,10.07
2023-05-21T16:06:53.323Z,15.15
2023-05-21T16:09:26.184Z,11.20
2023-05-21T16:11:59.200Z,10.38
2023-05-21T16:14:32.079Z,13.48
2023-05-21T16:17:04.956Z,8.48
2023-05-21T16:19:39.187Z,10.38
2023-05-21T16:22:12.049Z,13.57
2023-05-21T16:24:44.739Z,9.00
2023-05-21T16:27:18.208Z,10.43
2023-05-21T16:29:50.891Z,12.23
2023-05-21T16:32:23.776Z,10.77
2023-05-21T16:34:56.772Z,8.50
2023-05-21T16:37:29.267Z,9.60
2023-05-21T16:40:04.277Z,8.63
2023-05-21T16:42:36.827Z,13.20
2023-05-21T16:45:10.964Z,13.32
2023-05-21T16:47:43.701Z,13.13
2023-05-21T16:50:18.453Z,25.38
2023-05-21T16:55:24.640Z,31.83
2023-05-21T16:57:57.775Z,25.02
2023-05-21T17:00:30.710Z,27.90
2023-05-21T17:03:03.508Z,17.77
2023-05-21T17:05:36.410Z,11.93
2023-05-21T17:08:09.582Z,15.68
2023-05-21T17:10:44.015Z,13.70
2023-05-21T17:13:22.186Z,13.13
2023-05-21T17:15:55.855Z,13.98
2023-05-21T17:18:28.926Z,12.93
2023-05-21T17:21:01.729Z,12.18
2023-05-21T17:23:35.229Z,10.90
2023-05-21T17:26:11.388Z,12.32
2023-05-21T17:28:44.002Z,12.00
2023-05-21T17:31:17.039Z,11.77
2023-05-21T17:33:49.940Z,13.23
2023-05-21T17:36:22.519Z,10.95
2023-05-21T17:38:55.306Z,14.43
2023-05-21T17:41:27.987Z,10.52
2023-05-21T17:44:00.674Z,10.15
2023-05-21T17:46:33.245Z,11.18
2023-05-21T17:49:08.269Z,26.45
2023-05-21T17:51:41.232Z,25.20
2023-05-21T17:54:13.806Z,37.75
2023-05-21T17:56:46.690Z,24.27
2023-05-21T17:59:19.603Z,16.27
2023-05-21T18:01:52.085Z,28.60
2023-05-21T18:04:24.767Z,25.15
2023-05-21T18:06:57.301Z,21.73
2023-05-21T18:09:29.863Z,14.27
2023-05-21T18:12:03.557Z,9.45
2023-05-21T18:14:36.190Z,8.80
2023-05-21T18:17:09.056Z,10.20
2023-05-21T18:19:41.686Z,12.77
2023-05-21T18:22:14.317Z,12.25
2023-05-21T18:24:46.891Z,12.45
2023-05-21T18:27:19.364Z,11.25
2023-05-21T18:29:52.338Z,11.10
2023-05-21T18:32:25.001Z,10.90
2023-05-21T18:34:58.669Z,10.30
2023-05-21T18:37:31.386Z,9.90
2023-05-21T18:40:07.646Z,7.40
2023-05-21T18:42:40.515Z,10.25
2023-05-21T18:45:13.552Z,10.55
2023-05-21T18:47:46.061Z,9.25
2023-05-21T18:50:25.609Z,7.68
2023-05-21T18:52:58.461Z,8.90
2023-05-21T18:55:31.094Z,11.63
2023-05-21T18:58:03.614Z,7.72
2023-05-21T19:00:38.289Z,9.80
2023-05-21T19:03:11.467Z,10.73
2023-05-21T19:05:44.176Z,12.18
2023-05-21T19:08:16.817Z,8.05
2023-05-21T19:10:49.898Z,10.25
2023-05-21T19:13:22.719Z,7.78
2023-05-21T19:15:57.199Z,8.98
2023-05-21T19:18:31.614Z,8.68
2023-05-21T19:21:04.300Z,9.30
2023-05-21T19:23:51.213Z,6.53
2023-05-21T19:26:25.496Z,10.10
2023-05-21T19:28:57.972Z,9.38
2023-05-21T19:31:30.575Z,18.95
2023-05-21T19:34:10.163Z,9.55
2023-05-21T19:36:52.867Z,10.18
2023-05-21T19:39:26.503Z,13.05
2023-05-21T19:41:59.054Z,12.38
2023-05-21T19:44:31.706Z,7.65
2023-05-21T19:47:04.479Z,13.65
2023-05-21T19:49:37.108Z,10.70
2023-05-21T19:52:10.578Z,9.52
2023-05-21T19:54:43.085Z,14.00
2023-05-21T19:57:16.387Z,8.77
2023-05-21T19:59:48.942Z,9.77
2023-05-21T20:02:23.253Z,11.75
2023-05-21T20:04:57.659Z,10.88
2023-05-21T20:07:30.106Z,10.25
2023-05-21T20:10:02.762Z,8.50
2023-05-21T20:12:38.361Z,9.52
2023-05-21T20:15:13.168Z,11.25
2023-05-21T20:17:46.216Z,7.43
2023-05-21T20:20:18.995Z,11.02
2023-05-21T20:22:51.433Z,8.10
2023-05-21T20:25:24.026Z,7.55
2023-05-21T20:28:03.420Z,10.10
2023-05-21T20:30:59.029Z,13.70
2023-05-21T20:33:33.384Z,10.88
2023-05-21T20:36:05.898Z,12.45
2023-05-21T20:38:42.082Z,8.02
2023-05-21T20:41:14.717Z,11.13
2023-05-21T20:43:47.638Z,9.30
2023-05-21T20:46:20.175Z,9.25
2023-05-21T20:48:53.017Z,9.15
2023-05-21T20:51:26.532Z,12.10
2023-05-21T20:53:59.241Z,11.52
2023-05-21T20:56:41.394Z,12.77
2023-05-21T20:59:15.497Z,13.07
2023-05-21T21:01:48.194Z,10.45
2023-05-21T21:04:20.829Z,11.65
2023-05-21T21:06:54.097Z,11.35
2023-05-21T21:09:26.722Z,14.50
2023-05-21T21:12:06.272Z,13.48
2023-05-21T21:14:44.152Z,16.58
2023-05-21T21:17:16.780Z,10.75
2023-05-21T21:19:49.226Z,11.30
2023-05-21T21:22:21.905Z,17.02
2023-05-21T21:24:54.507Z,10.70
2023-05-21T21:27:27.107Z,15.70
2023-05-21T21:29:59.589Z,12.70
2023-05-21T21:32:32.133Z,14.13
2023-05-21T21:35:04.924Z,12.02
2023-05-21T21:37:37.425Z,13.85
2023-05-21T21:40:10.156Z,14.70
2023-05-21T21:42:43.191Z,15.05
2023-05-21T21:45:16.107Z,16.05
2023-05-21T21:47:48.898Z,17.02
2023-05-21T21:50:21.519Z,15.45
2023-05-21T21:52:55.936Z,12.85
2023-05-21T21:55:29.540Z,12.05
2023-05-21T21:58:02.036Z,13.85
2023-05-21T22:00:34.766Z,17.45
2023-05-21T22:03:07.244Z,14.35
2023-05-21T22:05:39.905Z,12.70
2023-05-21T22:08:12.449Z,16.45
2023-05-21T22:10:44.977Z,15.88
2023-05-21T22:13:17.414Z,17.00
2023-05-21T22:15:50.192Z,13.70
2023-05-21T22:18:38.760Z,13.30
2023-05-21T22:21:14.272Z,16.33
2023-05-21T22:23:47.269Z,13.00
2023-05-21T22:26:20.222Z,15.60
2023-05-21T22:28:52.768Z,17.92
2023-05-21T22:31:25.695Z,15.05
2023-05-21T22:33:58.231Z,15.50
2023-05-21T22:36:30.705Z,25.15
2023-05-21T22:39:03.440Z,14.73
2023-05-21T22:41:35.899Z,15.98
2023-05-21T22:44:08.384Z,16.30
2023-05-21T22:46:42.278Z,13.25
2023-05-21T22:49:17.616Z,15.55
2023-05-21T22:51:51.005Z,15.23
2023-05-21T22:54:23.777Z,15.15
2023-05-21T22:56:56.225Z,16.08
2023-05-21T22:59:29.011Z,19.70
2023-05-21T23:02:01.622Z,14.73
2023-05-21T23:04:43.136Z,15.25
2023-05-21T23:09:55.738Z,19.67
2023-05-21T23:12:28.288Z,16.23
2023-05-21T23:15:01.000Z,16.48
2023-05-21T23:17:33.596Z,19.23
2023-05-21T23:20:08.815Z,18.65
2023-05-21T23:22:41.493Z,16.27
2023-05-21T23:25:14.142Z,16.38
2023-05-21T23:27:46.993Z,16.48
2023-05-21T23:30:19.483Z,18.75
2023-05-21T23:32:52.069Z,20.58
2023-05-21T23:35:24.634Z,19.55
2023-05-21T23:37:57.150Z,21.27
2023-05-21T23:40:29.671Z,19.20
2023-05-21T23:43:02.208Z,20.38
2023-05-21T23:45:34.745Z,24.92
2023-05-21T23:48:07.817Z,20.30
2023-05-21T23:50:40.530Z,23.25
2023-05-21T23:53:13.216Z,24.27
2023-05-21T23:55:45.840Z,26.27
2023-05-21T23:58:18.441Z,19.95
